Time;durP1;ratioP1;P1;durP2;ratioP2;P2;SDS_P1;SDS_P2;PMS_P1;PMS_P2;Temp;Humidity;BMP_temperature;BMP_pressure;BME280_temperature;BME280_humidity;BME280_pressure;Samples;Min_cycle;Max_cycle;Signal;HPM_P1;HPM_P2
2023/04/01 00:01:42;;;;;;;4.90;2.10;;;;;;;7.80;97.76;98717.13;109181;1260;73894;-58
2023/04/01 00:04:15;;;;;;;4.00;1.90;;;;;;;7.81;97.87;98714.81;109125;1256;66896;-58
2023/04/01 00:06:44;;;;;;;3.20;1.70;;;;;;;7.82;97.62;98714.98;109164;1256;66846;-58
2023/04/01 00:09:25;;;;;;;2.70;1.60;;;;;;;7.81;97.59;98716.75;109140;1256;74855;-58
2023/04/01 00:12:00;;;;;;;5.50;2.10;;;;;;;7.78;97.30;98717.40;109177;1259;83514;-58
2023/04/01 00:14:29;;;;;;;4.90;2.20;;;;;;;7.77;97.39;98717.98;109197;1256;72821;-58
2023/04/01 00:17:00;;;;;;;4.20;1.70;;;;;;;7.76;97.36;98714.23;109129;1256;66847;-58
2023/04/01 00:19:32;;;;;;;3.90;1.70;;;;;;;7.76;97.40;98715.63;109174;1258;66805;-58
2023/04/01 00:22:01;;;;;;;4.30;2.00;;;;;;;7.77;97.80;98713.14;109180;1256;73864;-58
2023/04/01 00:24:32;;;;;;;4.70;2.10;;;;;;;7.78;97.61;98708.41;109170;1256;83314;-58
2023/04/01 00:27:01;;;;;;;6.40;2.00;;;;;;;7.81;98.18;98709.23;109133;1256;73370;-58
2023/04/01 00:29:39;;;;;;;3.50;1.40;;;;;;;7.90;98.24;98704.47;109135;1256;67202;-58
2023/04/01 00:32:11;;;;;;;3.00;1.50;;;;;;;7.98;98.53;98703.84;109181;1256;66807;-58
2023/04/01 00:34:47;;;;;;;4.50;1.30;;;;;;;8.07;98.74;98704.56;109152;1257;73901;-58
2023/04/01 00:37:15;;;;;;;3.50;1.20;;;;;;;8.15;98.61;98702.41;109183;1256;83931;-57
2023/04/01 00:39:44;;;;;;;3.60;1.20;;;;;;;8.23;98.84;98705.41;109153;1256;72766;-58
2023/04/01 00:42:22;;;;;;;4.80;1.50;;;;;;;8.32;98.62;98708.46;109162;1256;66752;-57
2023/04/01 00:44:52;;;;;;;4.10;1.30;;;;;;;8.40;98.49;98705.23;109163;1257;66829;-58
2023/04/01 00:47:22;;;;;;;2.40;1.40;;;;;;;8.47;98.65;98706.95;109160;1256;74705;-58
2023/04/01 00:49:52;;;;;;;3.30;1.50;;;;;;;8.54;98.55;98704.12;109158;1256;83482;-58
2023/04/01 00:52:23;;;;;;;4.00;1.60;;;;;;;8.59;98.54;98707.68;109078;1256;73912;-57
2023/04/01 00:55:01;;;;;;;2.70;0.90;;;;;;;8.64;98.35;98703.38;109106;1256;66901;-58
2023/04/01 00:57:36;;;;;;;5.40;1.20;;;;;;;8.68;98.38;98704.02;109043;1256;66983;-57
2023/04/01 01:00:10;;;;;;;4.00;1.20;;;;;;;8.70;98.03;98703.59;109169;1256;75401;-57
2023/04/01 01:02:44;;;;;;;3.20;0.90;;;;;;;8.70;97.99;98704.44;109072;1256;82261;-58
2023/04/01 01:05:17;;;;;;;3.40;1.10;;;;;;;8.70;98.18;98706.86;109082;1256;72669;-58
2023/04/01 01:08:19;;;;;;;4.20;1.10;;;;;;;8.70;98.08;98706.17;109113;1256;66833;-58
2023/04/01 01:10:50;;;;;;;2.80;1.00;;;;;;;8.70;98.08;98707.92;109037;1256;67129;-58
2023/04/01 01:13:37;;;;;;;3.20;1.20;;;;;;;8.69;98.11;98705.17;109079;1261;73957;-58
2023/04/01 01:16:28;;;;;;;3.40;1.00;;;;;;;8.67;98.08;98699.73;109005;1256;83557;-58
2023/04/01 01:19:15;;;;;;;2.70;1.00;;;;;;;8.67;98.33;98699.05;109082;1260;72772;-58
2023/04/01 01:21:46;;;;;;;3.00;1.00;;;;;;;8.66;98.31;98699.94;109127;1257;66778;-58
2023/04/01 01:24:33;;;;;;;6.40;1.10;;;;;;;8.67;98.21;98703.56;109021;1257;66759;-58
2023/04/01 01:27:18;;;;;;;3.10;1.20;;;;;;;8.66;98.41;98700.34;109109;1256;74883;-58
2023/04/01 01:30:18;;;;;;;3.00;0.90;;;;;;;8.64;98.67;98697.13;109164;1257;82566;-59
2023/04/01 01:33:12;;;;;;;3.70;1.10;;;;;;;8.62;98.52;98700.55;109101;1258;72772;-58
2023/04/01 01:35:50;;;;;;;4.10;1.10;;;;;;;8.60;98.64;98702.56;109102;1260;66874;-58
2023/04/01 01:39:02;;;;;;;2.10;1.00;;;;;;;8.60;98.99;98706.61;109144;1256;66838;-58
2023/04/01 01:46:40;;;;;;;3.90;1.30;;;;;;;8.53;99.23;98701.61;109008;1258;82453;-57
2023/04/01 01:50:11;;;;;;;;;;;;;;;;;;;;;
2023/04/01 01:53:44;;;;;;;;;;;;;;;;;;;;;
2023/04/01 02:01:14;;;;;;;4.30;1.30;;;;;;;8.47;99.99;98696.69;108904;1260;75013;-57
2023/04/01 02:05:03;;;;;;;2.30;1.10;;;;;;;8.41;99.64;98693.73;108888;1259;83376;-58
2023/04/01 02:08:33;;;;;;;2.10;1.00;;;;;;;8.35;99.79;98691.95;108826;1260;73769;-58
2023/04/01 02:12:07;;;;;;;3.80;1.00;;;;;;;8.31;99.94;98694.58;108903;1260;66922;-58
2023/04/01 02:15:51;;;;;;;;;;;;;;;;;;;;;
2023/04/01 02:19:25;;;;;;;;;;;;;;;;;;;;;
2023/04/01 02:22:52;;;;;;;4.80;0.90;;;;;;;8.29;100.00;98690.19;108451;1267;81723;-58
2023/04/01 02:26:19;;;;;;;;;;;;;;;;;;;;;
2023/04/01 02:29:05;;;;;;;5.10;1.10;;;;;;;8.28;100.00;98683.96;105416;1276;3129026;-58
2023/04/01 02:31:52;;;;;;;4.90;1.20;;;;;;;8.28;100.00;98681.88;107939;1271;67477;-58
2023/04/01 02:34:50;;;;;;;4.70;1.20;;;;;;;8.28;100.00;98684.29;107929;1273;74068;-58
2023/04/01 02:37:50;;;;;;;4.30;1.20;;;;;;;8.29;100.00;98686.35;108236;1270;82430;-58
2023/04/01 02:40:25;;;;;;;2.70;1.10;;;;;;;8.31;100.00;98684.00;108045;1268;72891;-58
2023/04/01 02:43:21;;;;;;;2.80;1.20;;;;;;;8.32;100.00;98684.95;108255;1269;67234;-58
2023/04/01 02:46:13;;;;;;;2.70;1.10;;;;;;;8.34;100.00;98686.75;108172;1269;66965;-58
2023/04/01 02:49:14;;;;;;;4.40;1.10;;;;;;;8.35;100.00;98691.57;108265;1270;74027;-58
2023/04/01 02:52:05;;;;;;;4.40;1.30;;;;;;;8.36;100.00;98695.54;108191;1270;83413;-58
2023/04/01 02:54:58;;;;;;;4.00;1.20;;;;;;;8.38;100.00;98693.88;108366;1264;74061;-58
2023/04/01 02:57:38;;;;;;;2.90;1.10;;;;;;;8.37;100.00;98694.25;108951;1256;67039;-58
2023/04/01 03:00:30;;;;;;;5.30;1.50;;;;;;;8.36;100.00;98693.92;109140;1257;66799;-58
2023/04/01 03:03:16;;;;;;;4.10;1.40;;;;;;;8.37;100.00;98694.61;109168;1256;74883;-58
2023/04/01 03:05:55;;;;;;;3.20;1.00;;;;;;;8.37;100.00;98695.81;109131;1257;82481;-58
2023/04/01 03:08:54;;;;;;;3.70;1.00;;;;;;;8.37;100.00;98695.62;109143;1256;73708;-58
2023/04/01 03:11:46;;;;;;;3.00;1.20;;;;;;;8.37;100.00;98695.80;109143;1256;66886;-58
2023/04/01 03:14:48;;;;;;;3.50;1.10;;;;;;;8.38;100.00;98695.59;109152;1257;66832;-58
2023/04/01 03:18:05;;;;;;;5.10;1.10;;;;;;;8.39;100.00;98697.46;109186;1257;73919;-58
2023/04/01 03:20:56;;;;;;;4.20;1.30;;;;;;;8.39;100.00;98695.39;109111;1257;83441;-58
2023/04/01 03:24:08;;;;;;;3.70;1.20;;;;;;;8.38;100.00;98699.05;109131;1256;73153;-58
2023/04/01 03:27:14;;;;;;;3.10;1.10;;;;;;;8.38;100.00;98697.17;109034;1257;67058;-58
2023/04/01 03:30:24;;;;;;;3.20;1.30;;;;;;;8.39;100.00;98697.30;109089;1256;66862;-58
2023/04/01 03:33:35;;;;;;;;;;;;;;;;;;;;;
2023/04/01 03:36:22;;;;;;;3.40;1.50;;;;;;;8.38;100.00;98695.77;109092;1256;83432;-58
2023/04/01 03:39:34;;;;;;;4.10;1.20;;;;;;;8.39;100.00;98698.34;109089;1256;73874;-58
2023/04/01 03:42:33;;;;;;;;;;;;;;;;;;;;;
2023/04/01 03:45:17;;;;;;;1.60;1.10;;;;;;;8.39;100.00;98699.38;109049;1257;67014;-58
2023/04/01 03:48:34;;;;;;;;;;;;;;;;;;;;;
2023/04/01 03:51:38;;;;;;;;;;;;;;;;;;;;;
2023/04/01 03:54:40;;;;;;;2.20;1.50;;;;;;;8.38;100.00;98705.17;109084;1257;72701;-59
2023/04/01 03:57:29;;;;;;;5.00;1.40;;;;;;;8.37;100.00;98707.98;109106;1256;67018;-58
2023/04/01 04:00:19;;;;;;;1.80;1.30;;;;;;;8.37;100.00;98709.77;109093;1258;66863;-58
2023/04/01 04:03:17;;;;;;;3.60;1.30;;;;;;;8.36;100.00;98713.79;109069;1257;74604;-58
2023/04/01 04:05:56;;;;;;;3.40;1.30;;;;;;;8.36;100.00;98716.39;109140;1256;83790;-58
2023/04/01 04:08:51;;;;;;;2.10;1.30;;;;;;;8.36;100.00;98712.41;109059;1256;72746;-58
2023/04/01 04:11:25;;;;;;;2.20;1.30;;;;;;;8.37;100.00;98717.95;109015;1256;66913;-58
2023/04/01 04:13:59;;;;;;;1.80;1.10;;;;;;;8.37;100.00;98721.93;109067;1256;66901;-58
2023/04/01 04:16:38;;;;;;;2.80;1.20;;;;;;;8.38;100.00;98722.71;109155;1257;73806;-58
2023/04/01 04:19:33;;;;;;;;;;;;;;;;;;;;;
2023/04/01 04:22:16;;;;;;;;;;;;;;;8.39;100.00;98727.05;109091;1256;74170;-58
2023/04/01 04:25:35;;;;;;;2.10;1.30;;;;;;;8.39;100.00;98727.41;109120;1256;66913;-58
2023/04/01 04:28:47;;;;;;;;;;;;;;;;;;;;;
2023/04/01 04:31:51;;;;;;;;;;;;;;;;;;;;;
2023/04/01 04:35:02;;;;;;;1.70;1.50;;;;;;;8.42;100.00;98727.58;109126;1256;83324;-57
2023/04/01 04:37:42;;;;;;;1.90;1.20;;;;;;;8.45;100.00;98728.14;109030;1256;73785;-58
2023/04/01 04:40:20;;;;;;;2.70;1.40;;;;;;;8.47;100.00;98732.56;109049;1257;66903;-57
2023/04/01 04:42:56;;;;;;;3.50;1.40;;;;;;;8.48;100.00;98734.71;109146;1256;66866;-58
2023/04/01 04:45:41;;;;;;;3.40;1.60;;;;;;;8.52;100.00;98737.67;109074;1256;74893;-58
2023/04/01 04:48:33;;;;;;;3.90;1.70;;;;;;;8.54;100.00;98737.06;109165;1256;82928;-58
2023/04/01 04:51:20;;;;;;;4.00;1.50;;;;;;;8.55;100.00;98738.74;109061;1256;74146;-58
2023/04/01 04:54:07;;;;;;;2.40;1.30;;;;;;;8.56;100.00;98739.35;109127;1257;66876;-58
2023/04/01 04:57:10;;;;;;;;;;;;;;;;;;;;;
2023/04/01 05:00:04;;;;;;;4.30;1.40;;;;;;;8.61;100.00;98737.35;109160;1256;75029;-57
2023/04/01 05:02:56;;;;;;;1.40;1.30;;;;;;;8.62;100.00;98741.10;108854;1257;82074;-56
2023/04/01 05:05:31;;;;;;;2.80;1.50;;;;;;;8.63;100.00;98741.56;108848;1256;72407;-56
2023/04/01 05:08:11;;;;;;;2.60;1.40;;;;;;;8.64;100.00;98743.95;108822;1256;66959;-56
2023/04/01 05:10:45;;;;;;;3.90;1.50;;;;;;;8.65;100.00;98744.59;108768;1257;66960;-57
2023/04/01 05:13:31;;;;;;;4.30;1.90;;;;;;;8.65;100.00;98744.80;108857;1256;74926;-56
2023/04/01 05:16:26;;;;;;;3.00;1.70;;;;;;;8.65;100.00;98743.93;108771;1257;83346;-56
2023/04/01 05:19:27;;;;;;;2.60;1.60;;;;;;;8.63;100.00;98746.95;108827;1257;73731;-56
2023/04/01 05:22:28;;;;;;;3.80;2.70;;;;;;;8.63;100.00;98748.20;108894;1256;67125;-54
2023/04/01 05:25:49;;;;;;;;;;;;;;;;;;;;;
2023/04/01 05:28:38;;;;;;;4.20;3.40;;;;;;;8.64;100.00;98750.73;108966;1256;73993;-57
2023/04/01 05:31:25;;;;;;;4.00;3.60;;;;;;;8.63;100.00;98757.05;108869;1256;83380;-54
2023/04/01 05:34:02;;;;;;;4.60;4.20;;;;;;;8.62;100.00;98756.08;108846;1256;72826;-57
2023/04/01 05:36:41;;;;;;;4.30;3.90;;;;;;;8.63;100.00;98756.88;108773;1257;67143;-56
2023/04/01 05:39:19;;;;;;;9.30;6.00;;;;;;;8.65;100.00;98760.98;108795;1258;66957;-56
2023/04/01 05:42:07;;;;;;;4.60;4.00;;;;;;;8.66;100.00;98759.55;108838;1256;75045;-56
2023/04/01 05:44:52;;;;;;;5.60;3.60;;;;;;;8.67;100.00;98762.77;108842;1257;82463;-56
2023/04/01 05:47:57;;;;;;;4.90;2.60;;;;;;;8.68;100.00;98763.24;108847;1256;73951;-56
2023/04/01 05:50:35;;;;;;;3.10;2.70;;;;;;;8.68;100.00;98767.23;108971;1256;67477;-55
2023/04/01 05:53:34;;;;;;;;;;;;;;;;;;;;;
2023/04/01 05:56:09;;;;;;;5.80;3.60;;;;;;;8.73;100.00;98764.88;108940;1256;73958;-56
2023/04/01 05:59:12;;;;;;;6.80;3.60;;;;;;;8.75;100.00;98767.57;108860;1256;83378;-57
2023/04/01 06:01:56;;;;;;;4.80;3.20;;;;;;;8.74;100.00;98764.66;108797;1256;72865;-56
2023/04/01 06:04:45;;;;;;;6.50;3.30;;;;;;;8.72;100.00;98765.61;108855;1256;67453;-57
2023/04/01 06:07:49;;;;;;;;;;;;;;;;;;;;;
2023/04/01 06:11:21;;;;;;;5.20;2.90;;;;;;;8.71;100.00;98774.02;108608;1260;74903;-57
2023/04/01 06:14:37;;;;;;;3.90;2.80;;;;;;;8.70;100.00;98775.17;108536;1260;83310;-56
2023/04/01 06:18:06;;;;;;;4.40;2.70;;;;;;;8.69;100.00;98778.83;108515;1261;73050;-57
2023/04/01 06:20:54;;;;;;;3.90;2.80;;;;;;;8.70;100.00;98782.45;108374;1265;67953;-57
2023/04/01 06:23:54;;;;;;;3.80;2.40;;;;;;;8.70;100.00;98785.59;108371;1265;67276;-57
2023/04/01 06:26:57;;;;;;;4.50;2.80;;;;;;;8.73;100.00;98785.09;108299;1265;74917;-57
2023/04/01 06:29:50;;;;;;;3.90;2.50;;;;;;;8.76;100.00;98790.48;108338;1264;83494;-58
2023/04/01 06:32:49;;;;;;;3.30;2.20;;;;;;;8.80;100.00;98797.40;108275;1266;73908;-57
2023/04/01 06:35:24;;;;;;;5.80;2.20;;;;;;;8.83;100.00;98797.77;108060;1265;67009;-57
2023/04/01 06:38:19;;;;;;;3.40;2.50;;;;;;;8.83;100.00;98799.52;108306;1265;67612;-55
2023/04/01 06:41:23;;;;;;;3.60;2.60;;;;;;;8.85;100.00;98800.98;108296;1267;75086;-57
2023/04/01 06:43:57;;;;;;;2.20;2.00;;;;;;;8.88;100.00;98800.30;108549;1260;83443;-58
2023/04/01 06:47:07;;;;;;;6.10;2.90;;;;;;;8.90;100.00;98804.86;108616;1260;71829;-56
2023/04/01 06:50:26;;;;;;;2.50;1.80;;;;;;;8.89;100.00;98807.36;108606;1260;67057;-57
2023/04/01 06:53:25;;;;;;;2.50;2.00;;;;;;;8.87;100.00;98805.57;108646;1260;66950;-57
2023/04/01 06:56:19;;;;;;;2.60;2.30;;;;;;;8.87;100.00;98807.30;108654;1260;74201;-57
2023/04/01 06:59:28;;;;;;;2.60;1.80;;;;;;;8.86;100.00;98806.82;108826;1256;83608;-57
2023/04/01 07:02:12;;;;;;;3.10;2.10;;;;;;;8.87;100.00;98812.55;108843;1256;71841;-57
2023/04/01 07:04:50;;;;;;;2.80;2.10;;;;;;;8.85;100.00;98811.93;108802;1257;67513;-55
2023/04/01 07:07:58;;;;;;;2.80;1.80;;;;;;;8.84;100.00;98814.42;108869;1256;66869;-56
2023/04/01 07:10:57;;;;;;;;;;;;;;;;;;;;;
2023/04/01 07:14:08;;;;;;;3.80;2.80;;;;;;;8.86;100.00;98820.77;108739;1256;83512;-57
2023/04/01 07:16:50;;;;;;;8.20;5.10;;;;;;;8.91;100.00;98821.00;108876;1256;73875;-57
2023/04/01 07:19:32;;;;;;;4.00;3.50;;;;;;;8.96;100.00;98824.94;108740;1258;67332;-57
2023/04/01 07:22:16;;;;;;;4.20;3.70;;;;;;;9.01;100.00;98823.58;108864;1256;66936;-57
2023/04/01 07:25:20;;;;;;;4.50;3.10;;;;;;;9.07;100.00;98828.16;108866;1256;75220;-57
2023/04/01 07:28:02;;;;;;;8.30;6.60;;;;;;;9.12;100.00;98828.90;108888;1256;83323;-58
2023/04/01 07:30:53;;;;;;;5.50;3.90;;;;;;;9.19;100.00;98836.16;108850;1256;72977;-58
2023/04/01 07:33:40;;;;;;;5.60;4.90;;;;;;;9.29;100.00;98837.89;108840;1256;66901;-58
2023/04/01 07:36:32;;;;;;;4.60;3.40;;;;;;;9.36;100.00;98837.27;108782;1257;67107;-57
2023/04/01 07:39:13;;;;;;;4.20;3.20;;;;;;;9.43;100.00;98840.77;108891;1256;75045;-58
2023/04/01 07:42:36;;;;;;;4.30;3.30;;;;;;;9.49;100.00;98841.65;108883;1256;83882;-59
2023/04/01 07:45:24;;;;;;;2.50;2.20;;;;;;;9.53;100.00;98844.67;109058;1256;72867;-59
2023/04/01 07:48:05;;;;;;;4.40;3.10;;;;;;;9.55;100.00;98843.19;109118;1256;66895;-59
2023/04/01 07:51:02;;;;;;;3.50;2.70;;;;;;;9.58;100.00;98845.66;108988;1256;66825;-59
2023/04/01 07:54:16;;;;;;;4.80;3.20;;;;;;;9.64;100.00;98847.24;109174;1256;73841;-59
2023/04/01 07:57:27;;;;;;;4.40;3.00;;;;;;;9.65;100.00;98849.27;109120;1256;83469;-59
2023/04/01 08:00:30;;;;;;;4.30;2.50;;;;;;;9.77;100.00;98853.27;108991;1256;74023;-59
2023/04/01 08:03:40;;;;;;;2.70;2.20;;;;;;;9.89;100.00;98853.27;109005;1256;66939;-59
2023/04/01 08:06:19;;;;;;;4.50;3.00;;;;;;;9.99;100.00;98860.52;109075;1256;66850;-59
2023/04/01 08:09:02;;;;;;;4.00;3.00;;;;;;;10.11;100.00;98866.98;109088;1256;73912;-58
2023/04/01 08:12:04;;;;;;;3.30;2.30;;;;;;;10.15;100.00;98865.30;109171;1256;81869;-58
2023/04/01 08:15:26;;;;;;;3.40;2.40;;;;;;;10.24;100.00;98868.61;109150;1256;73858;-59
2023/04/01 08:18:26;;;;;;;3.40;3.00;;;;;;;10.36;100.00;98865.66;109077;1256;66844;-59
2023/04/01 08:20:58;;;;;;;3.70;2.20;;;;;;;10.37;100.00;98868.77;109191;1256;66858;-58
2023/04/01 08:23:31;;;;;;;3.40;2.40;;;;;;;10.34;100.00;98870.67;109129;1256;74692;-58
2023/04/01 08:26:16;;;;;;;2.90;2.10;;;;;;;10.38;100.00;98865.88;109047;1256;83483;-58
2023/04/01 08:29:08;;;;;;;3.80;2.90;;;;;;;10.41;100.00;98871.30;109128;1256;72910;-59
2023/04/01 08:31:58;;;;;;;2.70;2.10;;;;;;;10.45;100.00;98868.79;109004;1256;67344;-58
2023/04/01 08:34:41;;;;;;;3.70;2.70;;;;;;;10.49;100.00;98875.15;109050;1256;67033;-58
2023/04/01 08:37:27;;;;;;;6.40;2.90;;;;;;;10.52;100.00;98872.41;109116;1256;74945;-58
2023/04/01 08:40:03;;;;;;;3.90;3.00;;;;;;;10.52;100.00;98874.10;109159;1256;83481;-58
2023/04/01 08:42:46;;;;;;;6.30;4.10;;;;;;;10.55;100.00;98874.48;109090;1256;73827;-58
2023/04/01 08:45:44;;;;;;;5.10;2.80;;;;;;;10.60;100.00;98875.77;109085;1256;66936;-58
2023/04/01 08:48:24;;;;;;;6.80;4.10;;;;;;;10.63;100.00;98884.09;109079;1256;66946;-58
2023/04/01 08:51:15;;;;;;;3.70;2.70;;;;;;;10.72;100.00;98881.27;109115;1256;73949;-58
2023/04/01 08:53:50;;;;;;;3.30;2.40;;;;;;;10.83;100.00;98884.94;109083;1256;83425;-58
2023/04/01 08:56:35;;;;;;;6.90;3.20;;;;;;;10.89;100.00;98886.35;109041;1256;72864;-58
2023/04/01 08:59:27;;;;;;;4.70;2.50;;;;;;;10.95;100.00;98888.94;109044;1256;66914;-58
2023/04/01 09:02:17;;;;;;;3.10;2.10;;;;;;;11.01;100.00;98888.71;109140;1256;66796;-59
2023/04/01 09:05:11;;;;;;;3.80;2.10;;;;;;;11.06;100.00;98891.56;109054;1256;73938;-58
2023/04/01 09:07:51;;;;;;;3.30;2.10;;;;;;;11.08;100.00;98889.50;109160;1256;83495;-58
2023/04/01 09:10:31;;;;;;;3.10;1.90;;;;;;;11.09;100.00;98894.02;109079;1256;72870;-58
2023/04/01 09:13:30;;;;;;;1.80;1.60;;;;;;;11.06;100.00;98898.88;109096;1256;66876;-58
2023/04/01 09:16:42;;;;;;;2.30;1.70;;;;;;;11.14;100.00;98894.71;109129;1256;66879;-58
2023/04/01 09:19:23;;;;;;;2.10;1.80;;;;;;;11.29;100.00;98897.65;108958;1256;74237;-58
2023/04/01 09:22:00;;;;;;;2.40;2.00;;;;;;;11.40;100.00;98900.74;109132;1256;83771;-58
2023/04/01 09:24:34;;;;;;;2.60;1.80;;;;;;;11.40;100.00;98901.30;109056;1256;72773;-58
2023/04/01 09:27:31;;;;;;;2.20;1.90;;;;;;;11.35;100.00;98904.23;109053;1256;66885;-58
2023/04/01 09:30:19;;;;;;;2.20;1.60;;;;;;;11.33;100.00;98909.42;109105;1256;66792;-58
2023/04/01 09:33:06;;;;;;;1.80;1.70;;;;;;;11.32;100.00;98913.15;109120;1256;74791;-58
2023/04/01 09:35:38;;;;;;;2.60;1.90;;;;;;;11.28;100.00;98913.39;109177;1256;83272;-58
2023/04/01 09:38:24;;;;;;;1.80;1.60;;;;;;;11.24;100.00;98916.86;109142;1256;73868;-58
2023/04/01 09:41:02;;;;;;;2.00;1.70;;;;;;;11.16;100.00;98920.83;109121;1256;67231;-58
2023/04/01 09:43:45;;;;;;;2.00;1.70;;;;;;;11.14;100.00;98923.05;109118;1256;66734;-58
2023/04/01 09:46:33;;;;;;;2.20;1.60;;;;;;;11.16;100.00;98925.55;109131;1256;75031;-58
2023/04/01 09:49:35;;;;;;;1.70;1.40;;;;;;;11.21;100.00;98924.88;109153;1256;82411;-58
2023/04/01 09:52:15;;;;;;;4.10;1.50;;;;;;;11.23;100.00;98928.98;109128;1256;73033;-57
2023/04/01 09:54:54;;;;;;;1.50;1.30;;;;;;;11.21;100.00;98929.59;109122;1256;66963;-57
2023/04/01 09:57:49;;;;;;;3.00;1.90;;;;;;;11.21;100.00;98926.61;109137;1256;66772;-58
2023/04/01 10:01:03;;;;;;;2.70;1.50;;;;;;;11.24;100.00;98928.87;109011;1256;75062;-59
2023/04/01 10:04:10;;;;;;;3.80;2.00;;;;;;;11.27;100.00;98931.83;109070;1256;83952;-58
2023/04/01 10:07:07;;;;;;;5.60;3.20;;;;;;;11.38;100.00;98930.28;109087;1256;72734;-58
2023/04/01 10:10:04;;;;;;;6.20;3.40;;;;;;;11.46;100.00;98932.90;108984;1256;66920;-58
2023/04/01 10:13:03;;;;;;;2.00;1.40;;;;;;;11.53;100.00;98936.30;109115;1256;66826;-58
2023/04/01 10:16:21;;;;;;;2.10;1.70;;;;;;;11.54;100.00;98938.33;109002;1257;74026;-58
2023/04/01 10:19:10;;;;;;;1.70;1.20;;;;;;;11.66;100.00;98936.71;109066;1256;83359;-59
2023/04/01 10:21:56;;;;;;;1.40;1.10;;;;;;;11.75;100.00;98938.21;109069;1256;72790;-58
2023/04/01 10:24:44;;;;;;;1.80;0.80;;;;;;;11.87;100.00;98938.68;109021;1256;66816;-58
2023/04/01 10:27:37;;;;;;;2.30;1.10;;;;;;;11.95;100.00;98939.76;109073;1256;66849;-58
2023/04/01 10:30:05;;;;;;;1.50;1.20;;;;;;;11.99;100.00;98942.63;109153;1256;75033;-58
2023/04/01 10:33:15;;;;;;;1.70;1.10;;;;;;;12.01;100.00;98944.06;109179;1256;82445;-58
2023/04/01 10:36:55;;;;;;;0.50;0.50;;;;;;;12.01;100.00;98941.44;109073;1256;72886;-57
2023/04/01 10:40:54;;;;;;;1.70;1.00;;;;;;;12.03;99.94;98943.04;109123;1256;66875;-58
2023/04/01 10:44:14;;;;;;;2.90;1.30;;;;;;;12.11;100.00;98939.58;109131;1256;66842;-58
2023/04/01 10:47:28;;;;;;;1.20;0.90;;;;;;;12.19;99.69;98936.57;109178;1256;74865;-58
2023/04/01 10:50:15;;;;;;;1.60;1.30;;;;;;;12.32;99.88;98941.79;108957;1256;83302;-58
2023/04/01 10:53:35;;;;;;;2.60;1.80;;;;;;;12.46;99.95;98941.94;109059;1256;73825;-58
2023/04/01 10:56:44;;;;;;;1.50;0.90;;;;;;;12.69;100.00;98942.98;109107;1256;67281;-58
2023/04/01 10:59:52;;;;;;;2.70;1.20;;;;;;;12.83;99.03;98942.39;109128;1256;66987;-58
2023/04/01 11:02:57;;;;;;;1.30;0.90;;;;;;;12.91;99.16;98945.31;109181;1256;74969;-58
2023/04/01 11:06:06;;;;;;;1.10;0.70;;;;;;;12.87;97.90;98945.79;109168;1256;82893;-57
2023/04/01 11:09:11;;;;;;;1.20;1.00;;;;;;;12.74;97.43;98948.03;109137;1256;71812;-57
2023/04/01 11:11:58;;;;;;;1.00;0.90;;;;;;;12.69;97.94;98947.89;109134;1256;66857;-58
2023/04/01 11:14:32;;;;;;;2.00;1.10;;;;;;;12.74;98.07;98949.09;109098;1256;67099;-58
2023/04/01 11:17:10;;;;;;;1.70;1.00;;;;;;;12.82;97.81;98950.50;109049;1256;74881;-58
2023/04/01 11:19:51;;;;;;;1.90;1.30;;;;;;;12.96;97.89;98949.91;109056;1256;83548;-58
2023/04/01 11:22:27;;;;;;;3.00;1.60;;;;;;;13.00;97.33;98948.17;109082;1256;72699;-58
2023/04/01 11:25:04;;;;;;;2.40;1.50;;;;;;;13.08;97.67;98949.73;109091;1256;66837;-58
2023/04/01 11:28:24;;;;;;;1.00;0.90;;;;;;;13.21;97.54;98954.59;109145;1256;66876;-57
2023/04/01 11:30:58;;;;;;;2.30;1.50;;;;;;;13.30;97.13;98955.41;109132;1256;74852;-58
2023/04/01 11:33:50;;;;;;;3.30;1.00;;;;;;;13.30;96.30;98954.85;109068;1256;83487;-58
2023/04/01 11:36:28;;;;;;;1.70;1.10;;;;;;;13.21;95.46;98957.45;109080;1256;72823;-58
2023/04/01 11:39:35;;;;;;;1.90;1.10;;;;;;;13.16;95.19;98959.46;109139;1256;66919;-58
2023/04/01 11:42:34;;;;;;;1.60;0.90;;;;;;;13.12;95.05;98954.85;109169;1256;66843;-58
2023/04/01 11:45:34;;;;;;;2.30;0.80;;;;;;;13.10;94.99;98960.30;109141;1256;75064;-58
2023/04/01 11:48:24;;;;;;;2.50;1.40;;;;;;;13.01;94.87;98959.48;109100;1256;83486;-58
2023/04/01 11:51:11;;;;;;;1.40;1.00;;;;;;;12.97;94.83;98966.66;109089;1256;73867;-58
2023/04/01 11:53:51;;;;;;;1.20;0.90;;;;;;;12.90;95.15;98967.96;109039;1256;66904;-58
2023/04/01 11:56:38;;;;;;;;;;;;;;;12.88;95.11;98968.16;109084;1256;66889;-58
2023/04/01 11:59:43;;;;;;;1.20;0.80;;;;;;;12.84;95.22;98971.05;109154;1256;73885;-58
2023/04/01 12:02:20;;;;;;;0.60;0.60;;;;;;;12.78;95.00;98975.34;109123;1256;83524;-58
2023/04/01 12:04:54;;;;;;;0.80;0.50;;;;;;;12.72;94.75;98970.64;109134;1256;72432;-58
2023/04/01 12:08:07;;;;;;;2.00;0.70;;;;;;;12.65;94.52;98976.19;109103;1256;66968;-58
2023/04/01 12:11:01;;;;;;;0.90;0.80;;;;;;;12.64;94.81;98978.52;109016;1257;66939;-58
2023/04/01 12:13:39;;;;;;;0.70;0.60;;;;;;;12.61;94.80;98977.69;109059;1257;73915;-58
2023/04/01 12:16:07;;;;;;;0.90;0.70;;;;;;;12.67;95.62;98978.70;109139;1257;83469;-58
2023/04/01 12:18:46;;;;;;;0.80;0.80;;;;;;;12.75;95.82;98979.70;109085;1256;73840;-58
2023/04/01 12:21:36;;;;;;;2.40;1.00;;;;;;;12.74;95.22;98984.34;108999;1257;66963;-58
2023/04/01 12:24:26;;;;;;;1.10;0.60;;;;;;;12.63;94.78;98985.11;109166;1256;66969;-58
2023/04/01 12:27:19;;;;;;;0.80;0.70;;;;;;;12.43;94.42;98986.27;109062;1256;75013;-58
2023/04/01 12:29:58;;;;;;;0.90;0.70;;;;;;;12.26;94.48;98992.30;109150;1255;83383;-58
2023/04/01 12:32:45;;;;;;;1.90;0.80;;;;;;;12.12;94.54;98995.52;109020;1256;73690;-58
2023/04/01 12:35:46;;;;;;;0.70;0.60;;;;;;;11.94;93.92;98996.70;109058;1259;66859;-58
2023/04/01 12:38:43;;;;;;;1.10;1.00;;;;;;;11.72;94.26;98997.53;109092;1257;66786;-58
2023/04/01 12:41:18;;;;;;;0.60;0.50;;;;;;;11.67;94.99;98998.55;109104;1260;74892;-58
2023/04/01 12:44:09;;;;;;;1.30;0.60;;;;;;;11.68;95.23;99005.34;109125;1257;82519;-57
2023/04/01 12:46:43;;;;;;;0.70;0.60;;;;;;;11.67;95.24;99005.39;109098;1256;73106;-57
2023/04/01 12:49:42;;;;;;;0.50;0.50;;;;;;;11.62;94.81;99007.10;109113;1256;66857;-58
2023/04/01 12:52:15;;;;;;;0.80;0.30;;;;;;;11.52;94.78;99009.13;109154;1257;66800;-58
2023/04/01 12:55:21;;;;;;;15.40;6.50;;;;;;;11.52;95.54;99008.98;109076;1256;74872;-58
2023/04/01 12:57:59;;;;;;;25.40;10.70;;;;;;;11.54;95.07;99011.29;109181;1256;83467;-58
2023/04/01 13:01:03;;;;;;;12.60;5.40;;;;;;;11.53;94.73;99014.14;109134;1256;73775;-58
2023/04/01 13:03:41;;;;;;;2.70;1.80;;;;;;;11.58;95.07;99014.90;109023;1256;66932;-58
2023/04/01 13:06:24;;;;;;;3.20;2.20;;;;;;;11.58;94.91;99013.33;109199;1256;66818;-58
2023/04/01 13:09:47;;;;;;;1.80;1.30;;;;;;;11.64;95.42;99018.55;109088;1256;72940;-58
2023/04/01 13:12:37;;;;;;;1.00;0.80;;;;;;;11.66;94.99;99021.07;108949;1257;83367;-58
2023/04/01 13:15:13;;;;;;;1.50;1.10;;;;;;;11.59;94.80;99016.73;109079;1257;73771;-58
2023/04/01 13:17:45;;;;;;;1.30;0.90;;;;;;;11.55;94.85;99019.95;109057;1257;66828;-58
2023/04/01 13:20:28;;;;;;;2.90;1.10;;;;;;;11.47;94.74;99025.91;109080;1257;66727;-58
2023/04/01 13:23:25;;;;;;;1.30;1.00;;;;;;;11.37;94.97;99025.30;109079;1256;73929;-58
2023/04/01 13:26:28;;;;;;;2.20;1.00;;;;;;;11.30;95.44;99032.18;109147;1256;83313;-58
2023/04/01 13:29:03;;;;;;;1.20;0.90;;;;;;;11.22;95.53;99037.77;109034;1256;71746;-59
2023/04/01 13:31:53;;;;;;;1.50;1.00;;;;;;;11.12;95.48;99041.85;109126;1256;66873;-58
2023/04/01 13:34:36;;;;;;;1.20;0.90;;;;;;;11.04;96.06;99045.48;109073;1256;66867;-58
2023/04/01 13:37:56;;;;;;;;;;;;;;;;;;;;;
2023/04/01 13:41:57;;;;;;;1.80;0.90;;;;;;;10.83;96.00;99053.77;109100;1256;83348;-58
2023/04/01 13:45:02;;;;;;;2.40;1.50;;;;;;;10.64;96.07;99059.24;108541;1266;73858;-59
2023/04/01 13:48:07;;;;;;;1.50;1.00;;;;;;;10.57;96.55;99063.86;108565;1267;67136;-60
2023/04/01 13:51:28;;;;;;;2.10;0.90;;;;;;;10.47;96.23;99070.36;108609;1267;66963;-59
2023/04/01 13:54:51;;;;;;;;;;;;;;;;;;;;;
2023/04/01 13:58:00;;;;;;;1.20;0.70;;;;;;;10.34;96.96;99075.52;108533;1267;83440;-59
2023/04/01 14:00:51;;;;;;;1.00;0.70;;;;;;;10.30;97.28;99077.09;108568;1267;73429;-59